• Join FlightAware (Why Join?)
  • Login
  • US Flag 
04:08AM EDT


 

Airport Tracker/Info


-or-


 

Live Flight TrackerFlight Track Log ✈ N20238 ✈ 16-Nov-2013 ✈ KGON - KHWV

Flight Track Log - Related Links

Times and Time Zones

All times are in EST time to prevent confusion due to time zone crossing. See the N20238 flight status page for this flight to view local times or setup timezone preferences in your user account.

Time Position Orientation Groundspeed Altitude Reporting Facility
EST Latitude Longitude Course Direction KTS MPH feet Rate Location/Type
10:56AM 41.6572 -72.2644 230° Southwest 56 64 5,000  Level Boston Center
10:57AM 41.6486 -72.2731 217° Southwest 52 60 5,400 540 Climbing Boston Center
10:57AM 41.6436 -72.2733 182° South 52 60 5,600 360 Climbing Boston Center
10:58AM 41.6344 -72.2792 205° Southwest 60 69 5,800 360 Climbing Boston Center
10:58AM 41.6272 -72.2800 185° South 62 71 6,000 240 Climbing Boston Center
10:59AM 41.6156 -72.2864 202° Southwest 66 76 6,100 360 Climbing Boston Center
10:59AM 41.6097 -72.2889 198° South 67 77 6,400 240 Climbing Boston Center
11:00AM 41.5928 -72.3008 208° Southwest 76 87 6,400 60 Level Boston Center
11:01AM 41.5917 -72.3033 239° Southwest 75 86 6,500  Climbing Boston Center
11:01AM 41.5717 -72.3189 210° Southwest 87 100 6,400  Descending Boston Center
11:02AM 41.1994 -72.2585 230° Southwest  Level Estimated
11:02AM 41.5689 -72.3200 197° South 87 100 6,500  Level Boston Center
11:02AM 41.5492 -72.3333 207° Southwest 92 106 6,400  Descending Boston Center
11:03AM 41.5458 -72.3356 207° Southwest 92 106 6,500  Climbing Boston Center
11:03AM 41.5286 -72.3486 210° Southwest 91 105 6,400 -120 Descending Boston Center
11:04AM 41.5236 -72.3519 207° Southwest 91 105 6,400  Level Boston Center
11:04AM 41.5072 -72.3667 214° Southwest 87 100 6,400  Level Boston Center
11:05AM 41.5022 -72.3683 194° South 89 102 6,400  Level Boston Center
11:05AM 41.4847 -72.3811 209° Southwest 88 101 6,400 60 Level Boston Center
11:06AM 41.4781 -72.3847 202° Southwest 91 105 6,500  Climbing Boston Center
11:06AM 41.4642 -72.3964 212° Southwest 88 101 6,400  Descending Boston Center
11:07AM 41.4578 -72.4019 213° Southwest 89 102 6,500  Climbing Boston Center
11:07AM 41.4428 -72.4142 211° Southwest 88 101 6,400  Descending Boston Center
11:08AM 41.4375 -72.4178 207° Southwest 92 106 6,500  Climbing Boston Center
11:10AM 41.3739 -72.4483 209° Southwest  Level FlightAware Approximate
11:11AM 41.3500 -72.4833 209° Southwest 93 107 6,500  Level New York TRACON
11:12AM 41.3333 -72.5000 217° Southwest 93 107 6,500  Level New York TRACON
11:13AM 41.3000 -72.5167 201° Southwest 94 108 6,500  Level New York TRACON
11:14AM 41.2833 -72.5167 180° South 98 113 6,500  Level New York TRACON
11:15AM 41.2667 -72.5333 217° Southwest 92 106 6,500  Level New York TRACON
11:16AM 41.2333 -72.5667 217° Southwest 90 104 6,500  Level New York TRACON
11:17AM 41.1517 -72.6121 209° Southwest  Level FlightAware Approximate
11:17AM 41.2167 -72.5833 217° Southwest 89 102 6,500  Level New York TRACON
11:18AM 41.2000 -72.6000 217° Southwest 88 101 6,600  Climbing New York TRACON
11:19AM 41.1833 -72.6167 217° Southwest 88 101 6,500 -60 Descending New York TRACON
11:20AM 41.1667 -72.6333 217° Southwest 90 104 6,500  Level New York TRACON
11:21AM 41.1333 -72.6500 201° Southwest 88 101 6,500  Level New York TRACON
11:22AM 41.1167 -72.6667 217° Southwest 86 99 6,500 -60 Level New York TRACON
11:23AM 41.1000 -72.6833 217° Southwest 85 98 6,400  Descending New York TRACON
11:24AM 41.0833 -72.6833 180° South 88 101 6,500 -60 Climbing New York TRACON
11:25AM 41.0500 -72.7000 201° Southwest 86 99 6,300 -300 Descending New York TRACON
11:26AM 41.0333 -72.7167 217° Southwest 98 113 5,900 -480 Descending New York TRACON
11:27AM 41.0167 -72.7333 217° Southwest 102 117 5,400 -540 Descending New York TRACON
11:28AM 40.9833 -72.7667 217° Southwest 106 122 4,900 -540 Descending New York TRACON
11:29AM 40.9500 -72.7833 201° Southwest 110 127 4,300 -600 Descending New York TRACON